createdAt,value
2022-12-17T00:00:36.313Z,-1.11
2022-12-17T00:01:36.270Z,-1.11
2022-12-17T00:02:36.375Z,-1.11
2022-12-17T00:03:36.634Z,-0.83
2022-12-17T00:04:36.255Z,-0.83
2022-12-17T00:05:36.245Z,-1.28
2022-12-17T00:06:36.249Z,-1.28
2022-12-17T00:07:36.246Z,-0.83
2022-12-17T00:08:36.289Z,-0.83
2022-12-17T00:09:36.248Z,-0.67
2022-12-17T00:10:36.246Z,-0.56
2022-12-17T00:11:36.253Z,-1
2022-12-17T00:12:36.245Z,-0.67
2022-12-17T00:13:36.573Z,-0.56
2022-12-17T00:14:36.244Z,-0.83
2022-12-17T00:15:36.255Z,-1.56
2022-12-17T00:16:36.304Z,-1
2022-12-17T00:17:36.273Z,-0.83
2022-12-17T00:18:36.254Z,-0.67
2022-12-17T00:19:36.253Z,-0.39
2022-12-17T00:20:36.252Z,-0.67
2022-12-17T00:21:36.259Z,-1
2022-12-17T00:22:36.251Z,-0.67
2022-12-17T00:23:36.579Z,-0.67
2022-12-17T00:24:36.270Z,-0.83
2022-12-17T00:25:36.252Z,-1.11
2022-12-17T00:26:36.259Z,-1
2022-12-17T00:27:36.268Z,-1.11
2022-12-17T00:28:36.258Z,-1.28
2022-12-17T00:29:36.265Z,-0.56
2022-12-17T00:30:36.262Z,-0.67
2022-12-17T00:31:36.299Z,-0.83
2022-12-17T00:32:36.266Z,-1.11
2022-12-17T00:33:36.665Z,-0.83
2022-12-17T00:34:36.265Z,-1
2022-12-17T00:35:36.270Z,-0.83
2022-12-17T00:36:36.275Z,-1
2022-12-17T00:37:36.273Z,-1
2022-12-17T00:38:36.271Z,-1.28
2022-12-17T00:39:36.271Z,-1.11
2022-12-17T00:40:36.275Z,-1.11
2022-12-17T00:41:36.273Z,-1.28
2022-12-17T00:42:36.265Z,-1.28
2022-12-17T00:43:36.590Z,-1.28
2022-12-17T00:44:36.272Z,-1
2022-12-17T00:45:36.266Z,-1.44
2022-12-17T00:46:36.341Z,-0.83
2022-12-17T00:47:36.276Z,-1.11
2022-12-17T00:48:36.522Z,-1.11
2022-12-17T00:49:36.298Z,-1
2022-12-17T00:50:36.289Z,-1.28
2022-12-17T00:51:36.276Z,-1.28
2022-12-17T00:52:36.269Z,-1.28
2022-12-17T00:53:36.535Z,-1.44
2022-12-17T00:54:36.270Z,-1.28
2022-12-17T00:55:36.274Z,-1.28
2022-12-17T00:56:36.287Z,-1.44
2022-12-17T00:57:36.275Z,-1.28
2022-12-17T00:58:36.278Z,-1.44
2022-12-17T00:59:36.281Z,-1.28
2022-12-17T01:00:36.291Z,-1.11
2022-12-17T01:01:36.468Z,-1.28
2022-12-17T01:02:36.369Z,-1.44
2022-12-17T01:03:36.498Z,-1.11
2022-12-17T01:04:36.277Z,-1.28
2022-12-17T01:05:36.319Z,-1.44
2022-12-17T01:06:36.277Z,-1
2022-12-17T01:07:36.279Z,-1.44
2022-12-17T01:08:36.286Z,-1.11
2022-12-17T01:09:36.288Z,-1.11
2022-12-17T01:10:36.279Z,-1.56
2022-12-17T01:11:36.294Z,-1.56
2022-12-17T01:12:36.291Z,-1.67
2022-12-17T01:13:36.561Z,-1.44
2022-12-17T01:14:36.292Z,-1.28
2022-12-17T01:15:36.285Z,-1.28
2022-12-17T01:16:36.349Z,-1.56
2022-12-17T01:17:36.290Z,-1.28
2022-12-17T01:18:36.286Z,-1.11
2022-12-17T01:19:36.327Z,-1
2022-12-17T01:20:36.290Z,-1.11
2022-12-17T01:21:36.309Z,-1.11
2022-12-17T01:22:36.281Z,-1.28
2022-12-17T01:23:36.568Z,-1.28
2022-12-17T01:24:36.294Z,-1.28
2022-12-17T01:25:36.291Z,-1.44
2022-12-17T01:26:36.290Z,-1.11
2022-12-17T01:27:36.288Z,-1.56
2022-12-17T01:28:36.288Z,-1.28
2022-12-17T01:29:36.290Z,-1.11
2022-12-17T01:30:36.293Z,-1.11
2022-12-17T01:31:36.319Z,-1.44
2022-12-17T01:32:36.287Z,-1.44
2022-12-17T01:33:36.512Z,-1.44
2022-12-17T01:34:36.296Z,-1.56
2022-12-17T01:35:36.297Z,-1.28
2022-12-17T01:36:36.294Z,-1.28
2022-12-17T01:37:36.330Z,-1.28
2022-12-17T01:38:36.293Z,-1.11
2022-12-17T01:39:36.302Z,-1.44
2022-12-17T01:40:36.292Z,-1
2022-12-17T01:41:36.296Z,-1.11
2022-12-17T01:42:36.301Z,-0.83
2022-12-17T01:43:36.505Z,-1.28
2022-12-17T01:44:36.300Z,-0.83
2022-12-17T01:45:36.358Z,-1.28
2022-12-17T01:46:36.300Z,-0.83
2022-12-17T01:47:36.296Z,-1.44
2022-12-17T01:48:36.298Z,-0.83
2022-12-17T01:49:36.298Z,-1.28
2022-12-17T01:50:36.320Z,-1.44
2022-12-17T01:51:36.299Z,-1.11
2022-12-17T01:52:36.305Z,-1
2022-12-17T01:53:36.706Z,-1.11
2022-12-17T01:54:36.301Z,-1.44
2022-12-17T01:55:36.299Z,-0.83
2022-12-17T01:56:36.302Z,-1.11
2022-12-17T01:57:36.308Z,-1.28
2022-12-17T01:58:36.299Z,-0.83
2022-12-17T01:59:36.305Z,-1
2022-12-17T02:00:36.326Z,-1.28
2022-12-17T02:01:36.491Z,-1.28
2022-12-17T02:02:36.426Z,-1.67
2022-12-17T02:03:36.567Z,-1
2022-12-17T02:04:36.295Z,-1.28
2022-12-17T02:05:36.306Z,-1.56
2022-12-17T02:06:36.304Z,-1
2022-12-17T02:07:36.377Z,-1.44
2022-12-17T02:08:36.304Z,-1.44
2022-12-17T02:09:36.323Z,-1.56
2022-12-17T02:10:36.302Z,-1.56
2022-12-17T02:11:36.297Z,-1.11
2022-12-17T02:12:36.303Z,-0.83
2022-12-17T02:13:36.528Z,-1.11
2022-12-17T02:14:36.302Z,-1.44
2022-12-17T02:15:36.303Z,-1.28
2022-12-17T02:16:36.339Z,-1.28
2022-12-17T02:17:36.295Z,-1.28
2022-12-17T02:18:36.305Z,-1.28
2022-12-17T02:19:36.298Z,-1.28
2022-12-17T02:20:36.296Z,-0.83
2022-12-17T02:21:36.296Z,-1
2022-12-17T02:22:36.299Z,-1
2022-12-17T02:23:36.817Z,-1
2022-12-17T02:24:36.306Z,-1
2022-12-17T02:25:36.329Z,-1.11
2022-12-17T02:26:36.292Z,-1.44
2022-12-17T02:27:36.316Z,-1.56
2022-12-17T02:28:36.305Z,-1.28
2022-12-17T02:29:36.304Z,-1.67
2022-12-17T02:30:36.310Z,-1.11
2022-12-17T02:31:36.361Z,-1.83
2022-12-17T02:32:36.309Z,-1.44
2022-12-17T02:33:36.610Z,-1.28
2022-12-17T02:34:36.312Z,-1
2022-12-17T02:35:36.309Z,-1.11
2022-12-17T02:36:36.306Z,-1.11
2022-12-17T02:37:36.320Z,-1.28
2022-12-17T02:38:36.312Z,-1.11
2022-12-17T02:39:36.338Z,-1.28
2022-12-17T02:40:36.305Z,-1.44
2022-12-17T02:41:36.325Z,-1.44
2022-12-17T02:42:36.318Z,-1.44
2022-12-17T02:43:36.565Z,-1.56
2022-12-17T02:44:36.315Z,-1.28
2022-12-17T02:45:36.357Z,-1.28
2022-12-17T02:46:36.312Z,-1.28
2022-12-17T02:47:36.305Z,-1.44
2022-12-17T02:48:36.319Z,-1.44
2022-12-17T02:49:36.306Z,-1.44
2022-12-17T02:50:36.311Z,-1.56
2022-12-17T02:51:36.304Z,-1.67
2022-12-17T02:52:36.315Z,-1.83
2022-12-17T02:53:36.509Z,-1.56
2022-12-17T02:54:36.316Z,-1.44
2022-12-17T02:55:36.312Z,-1.28
2022-12-17T02:56:36.335Z,-1.56
2022-12-17T02:57:38.076Z,-1.56
2022-12-17T02:58:36.315Z,-1.28
2022-12-17T02:59:36.308Z,-1.28
2022-12-17T03:00:36.318Z,-1.67
2022-12-17T03:01:36.479Z,-1
2022-12-17T03:02:36.414Z,-1.28
2022-12-17T03:03:36.736Z,-1.44
2022-12-17T03:04:36.327Z,-1.28
2022-12-17T03:05:44.835Z,-1.67
2022-12-17T03:06:36.326Z,-1.44
2022-12-17T03:07:36.318Z,-1.44
2022-12-17T03:08:36.330Z,-1.28
2022-12-17T03:09:36.324Z,-1.44
2022-12-17T03:10:36.332Z,-1.44
2022-12-17T03:11:36.331Z,-1.44
2022-12-17T03:12:36.330Z,-1.44
2022-12-17T03:13:36.531Z,-0.83
2022-12-17T03:14:36.334Z,-0.83
2022-12-17T03:15:36.331Z,-1.28
2022-12-17T03:16:37.861Z,-1.44
2022-12-17T03:17:36.327Z,-1.44
2022-12-17T03:18:36.339Z,-1.28
2022-12-17T03:19:36.329Z,-1.56
2022-12-17T03:20:36.337Z,-1.11
2022-12-17T03:21:36.336Z,-1.28
2022-12-17T03:22:36.342Z,-1.56
2022-12-17T03:23:36.692Z,-1.67
2022-12-17T03:24:36.342Z,-1.44
2022-12-17T03:25:36.336Z,-1.28
2022-12-17T03:26:36.341Z,-1.28
2022-12-17T03:27:36.347Z,-1.28
2022-12-17T03:28:36.340Z,-1.28
2022-12-17T03:29:36.379Z,-1.44
2022-12-17T03:30:37.859Z,-1.28
2022-12-17T03:31:36.407Z,-1.28
2022-12-17T03:32:36.344Z,-1.28
2022-12-17T03:33:36.698Z,-1.28
2022-12-17T03:34:36.349Z,-1.28
2022-12-17T03:35:36.352Z,-1.67
2022-12-17T03:36:36.351Z,-1.28
2022-12-17T03:37:36.355Z,-1.28
2022-12-17T03:38:36.351Z,-1.56
2022-12-17T03:39:36.362Z,-1.28
2022-12-17T03:40:36.381Z,-1.67
2022-12-17T03:41:36.363Z,-1.56
2022-12-17T03:42:36.355Z,-1.11
2022-12-17T03:43:36.696Z,-1.11
2022-12-17T03:44:36.363Z,-0.83
2022-12-17T03:45:36.443Z,-0.83
2022-12-17T03:46:36.409Z,-1.44
2022-12-17T03:47:36.357Z,-1.28
2022-12-17T03:48:36.355Z,-1.11
2022-12-17T03:49:36.351Z,-1.11
2022-12-17T03:50:36.362Z,-1.11
2022-12-17T03:51:36.369Z,-1.28
2022-12-17T03:52:36.372Z,-1.28
2022-12-17T03:53:36.626Z,-1.11
2022-12-17T03:54:36.375Z,-1.28
2022-12-17T03:55:36.367Z,-1.28
2022-12-17T03:56:36.370Z,-1.44
2022-12-17T03:57:36.370Z,-1.56
2022-12-17T03:58:36.372Z,-1
2022-12-17T03:59:36.372Z,-1.67
2022-12-17T04:00:36.374Z,-1.11
2022-12-17T04:01:36.505Z,-1.11
2022-12-17T04:02:36.533Z,-1.11
2022-12-17T04:03:36.656Z,-1.56
2022-12-17T04:04:36.366Z,-1.28
2022-12-17T04:05:36.374Z,-1.67
2022-12-17T04:06:36.375Z,-1.28
2022-12-17T04:07:36.377Z,-1.28
2022-12-17T04:08:36.377Z,-1.44
2022-12-17T04:09:36.384Z,-1.28
2022-12-17T04:10:36.381Z,-1.44
2022-12-17T04:11:36.379Z,-1.28
2022-12-17T04:12:36.379Z,-1.28
2022-12-17T04:13:40.612Z,-1.28
2022-12-17T04:14:36.382Z,-1.56
2022-12-17T04:15:36.412Z,-1.11
2022-12-17T04:16:36.383Z,-1.28
2022-12-17T04:17:36.400Z,-1.56
2022-12-17T04:18:36.395Z,-1.44
2022-12-17T04:19:36.433Z,-1.28
2022-12-17T04:20:36.392Z,-1.83
2022-12-17T04:21:36.381Z,-1.44
2022-12-17T04:22:36.385Z,-1.56
2022-12-17T04:23:36.723Z,-1.44
2022-12-17T04:24:36.384Z,-1.56
2022-12-17T04:25:36.378Z,-1.67
2022-12-17T04:26:36.406Z,-1.28
2022-12-17T04:27:36.389Z,-1.28
2022-12-17T04:28:36.386Z,-1.28
2022-12-17T04:29:36.378Z,-1.67
2022-12-17T04:30:36.386Z,-1.44
2022-12-17T04:31:36.451Z,-1.28
2022-12-17T04:32:36.393Z,-1.11
2022-12-17T04:33:36.699Z,-1.28
2022-12-17T04:34:36.387Z,-1.44
2022-12-17T04:35:36.398Z,-1.67
2022-12-17T04:36:36.395Z,-1.56
2022-12-17T04:37:36.382Z,-1.28
2022-12-17T04:38:36.438Z,-1.28
2022-12-17T04:39:36.384Z,-1.44
2022-12-17T04:40:36.393Z,-1.11
2022-12-17T04:41:36.382Z,-1.44
2022-12-17T04:42:36.399Z,-1.56
2022-12-17T04:43:36.723Z,-1.28
2022-12-17T04:44:36.399Z,-1.44
2022-12-17T04:45:36.398Z,-1.56
2022-12-17T04:46:36.471Z,-1.67
2022-12-17T04:47:36.390Z,-1.44
2022-12-17T04:48:36.398Z,-1.56
2022-12-17T04:49:36.991Z,-1.44
2022-12-17T04:50:36.408Z,-1.28
2022-12-17T04:51:36.403Z,-1.56
2022-12-17T04:52:36.401Z,-1.56
2022-12-17T04:53:36.681Z,-1.56
2022-12-17T04:54:36.398Z,-1.56
2022-12-17T04:55:36.401Z,-1.56
2022-12-17T04:56:36.398Z,-1.56
2022-12-17T04:57:36.395Z,-1.56
2022-12-17T04:58:36.396Z,-2
2022-12-17T04:59:36.400Z,-1.67
2022-12-17T05:00:36.393Z,-1.67
2022-12-17T05:01:36.522Z,-1.67
2022-12-17T05:02:41.019Z,-1.56
2022-12-17T05:03:36.764Z,-1.44
2022-12-17T05:04:36.392Z,-1.56
2022-12-17T05:05:36.547Z,-1.56
2022-12-17T05:06:36.403Z,-1.67
2022-12-17T05:07:36.398Z,-1.56
2022-12-17T05:08:41.175Z,-1.56
2022-12-17T05:09:36.425Z,-1.83
2022-12-17T05:10:36.406Z,-1.83
2022-12-17T05:11:36.409Z,-2
2022-12-17T05:12:36.400Z,-1.67
2022-12-17T05:13:36.693Z,-1.83
2022-12-17T05:14:36.401Z,-1.67
2022-12-17T05:15:36.476Z,-1.67
2022-12-17T05:16:36.401Z,-1.67
2022-12-17T05:17:36.414Z,-1.67
2022-12-17T05:18:36.416Z,-1.56
2022-12-17T05:19:36.402Z,-1.67
2022-12-17T05:20:36.415Z,-1.67
2022-12-17T05:21:36.431Z,-1.83
2022-12-17T05:22:36.411Z,-1.67
2022-12-17T05:23:36.677Z,-2
2022-12-17T05:24:36.457Z,-1.67
2022-12-17T05:25:36.414Z,-2
2022-12-17T05:26:36.405Z,-1.67
2022-12-17T05:27:36.414Z,-1.44
2022-12-17T05:28:36.409Z,-1.56
2022-12-17T05:29:36.419Z,-2
2022-12-17T05:30:36.419Z,-1.83
2022-12-17T05:31:36.457Z,-1.67
2022-12-17T05:32:36.424Z,-1.44
2022-12-17T05:33:36.668Z,-1.67
2022-12-17T05:34:36.412Z,-1.56
2022-12-17T05:35:36.409Z,-1.67
2022-12-17T05:36:36.419Z,-1.67
2022-12-17T05:37:36.453Z,-1.44
2022-12-17T05:38:36.421Z,-1.56
2022-12-17T05:39:36.417Z,-1.56
2022-12-17T05:40:36.424Z,-1.56
2022-12-17T05:41:36.422Z,-1.67
2022-12-17T05:42:36.420Z,-1.56
2022-12-17T05:43:36.768Z,-1.67
2022-12-17T05:44:36.418Z,-1.67
2022-12-17T05:45:36.419Z,-1.56
2022-12-17T05:46:36.474Z,-1.67
2022-12-17T05:47:36.427Z,-1.67
2022-12-17T05:48:36.423Z,-2
2022-12-17T05:49:36.426Z,-1.83
2022-12-17T05:50:36.420Z,-1.56
2022-12-17T05:51:38.777Z,-1.67
2022-12-17T05:52:36.461Z,-1.56
2022-12-17T05:53:36.811Z,-1.28
2022-12-17T05:54:36.446Z,-1.83
2022-12-17T05:55:36.430Z,-1.67
2022-12-17T05:56:36.431Z,-1.28
2022-12-17T05:57:36.428Z,-1.56
2022-12-17T05:58:36.434Z,-1.44
2022-12-17T05:59:36.420Z,-1.56
2022-12-17T06:00:36.425Z,-1.44
2022-12-17T06:01:36.456Z,-1.56
2022-12-17T06:02:36.571Z,-1.28
2022-12-17T06:03:36.821Z,-1.44
2022-12-17T06:04:36.462Z,-1.67
2022-12-17T06:05:36.433Z,-1.67
2022-12-17T06:06:36.433Z,-1.56
2022-12-17T06:07:36.435Z,-1.28
2022-12-17T06:08:36.440Z,-1.83
2022-12-17T06:09:36.460Z,-1.44
2022-12-17T06:10:36.432Z,-1.44
2022-12-17T06:11:36.428Z,-1.56
2022-12-17T06:12:36.431Z,-1.83
2022-12-17T06:13:36.672Z,-1.67
2022-12-17T06:14:36.446Z,-1.67
2022-12-17T06:15:36.484Z,-1.67
2022-12-17T06:16:36.490Z,-1.56
2022-12-17T06:17:36.444Z,-1.56
2022-12-17T06:18:36.442Z,-1.44
2022-12-17T06:19:36.462Z,-1.56
2022-12-17T06:20:36.451Z,-1.44
2022-12-17T06:21:36.449Z,-1.44
2022-12-17T06:22:36.464Z,-1.83
2022-12-17T06:23:36.720Z,-1.67
2022-12-17T06:24:39.134Z,-1.83
2022-12-17T06:25:36.492Z,-1.56
2022-12-17T06:26:36.452Z,-1.67
2022-12-17T06:27:36.461Z,-1.44
2022-12-17T06:28:36.510Z,-1.56
2022-12-17T06:29:36.458Z,-1.44
2022-12-17T06:30:36.458Z,-1.44
2022-12-17T06:31:36.541Z,-1.56
2022-12-17T06:32:36.468Z,-1.28
2022-12-17T06:33:36.762Z,-1.28
2022-12-17T06:34:36.465Z,-1.67
2022-12-17T06:35:36.468Z,-1.56
2022-12-17T06:36:36.472Z,-1.28
2022-12-17T06:37:36.515Z,-1.67
2022-12-17T06:38:36.477Z,-1.28
2022-12-17T06:39:36.469Z,-1.56
2022-12-17T06:40:36.469Z,-1.44
2022-12-17T06:41:36.511Z,-1.56
2022-12-17T06:42:36.478Z,-1.67
2022-12-17T06:43:36.684Z,-1.56
2022-12-17T06:44:36.483Z,-1.67
2022-12-17T06:45:36.472Z,-1.44
2022-12-17T06:46:36.555Z,-1.44
2022-12-17T06:47:36.472Z,-1.67
2022-12-17T06:48:36.491Z,-1.56
2022-12-17T06:49:36.533Z,-1.67
2022-12-17T06:50:36.477Z,-1.56
2022-12-17T06:51:36.490Z,-1.56
2022-12-17T06:52:36.489Z,-1.67
2022-12-17T06:53:36.781Z,-1.44
2022-12-17T06:54:36.507Z,-1.28
2022-12-17T06:55:36.491Z,-1.44
2022-12-17T06:56:36.504Z,-1.67
2022-12-17T06:57:40.758Z,-1.44
2022-12-17T06:58:36.494Z,-1.28
2022-12-17T06:59:36.494Z,-1.56
2022-12-17T07:00:36.573Z,-1.28
2022-12-17T07:01:36.759Z,-1.44
2022-12-17T07:02:36.676Z,-1.44
2022-12-17T07:03:36.845Z,-1.28
2022-12-17T07:04:36.501Z,-1.28
2022-12-17T07:05:36.523Z,-1.44
2022-12-17T07:06:36.509Z,-1.44
2022-12-17T07:07:36.503Z,-1.44
2022-12-17T07:08:36.508Z,-1.56
2022-12-17T07:09:36.514Z,-1.44
2022-12-17T07:10:36.514Z,-1.67
2022-12-17T07:11:36.567Z,-1.83
2022-12-17T07:12:36.520Z,-1.67
2022-12-17T07:13:36.936Z,-1.67
2022-12-17T07:14:36.511Z,-1.67
2022-12-17T07:15:36.510Z,-1.67
2022-12-17T07:16:36.587Z,-1.83
2022-12-17T07:17:36.519Z,-1.83
2022-12-17T07:18:36.526Z,-2
2022-12-17T07:19:36.522Z,-1.67
2022-12-17T07:20:36.526Z,-1.83
2022-12-17T07:21:36.529Z,-1.67
2022-12-17T07:22:36.527Z,-1.56
2022-12-17T07:23:36.840Z,-1.67
2022-12-17T07:24:36.546Z,-1.67
2022-12-17T07:25:38.530Z,-1.56
2022-12-17T07:26:36.526Z,-1.67
2022-12-17T07:27:36.535Z,-1.83
2022-12-17T07:28:36.533Z,-1.67
2022-12-17T07:29:36.579Z,-1.67
2022-12-17T07:30:36.583Z,-1.56
2022-12-17T07:31:36.571Z,-1.67
2022-12-17T07:32:36.562Z,-1.83
2022-12-17T07:33:36.938Z,-1.83
2022-12-17T07:34:36.547Z,-1.83
2022-12-17T07:35:36.536Z,-1.67
2022-12-17T07:36:36.539Z,-1.56
2022-12-17T07:37:36.547Z,-1.67
2022-12-17T07:38:36.542Z,-1.67
2022-12-17T07:39:36.538Z,-1.56
2022-12-17T07:40:36.545Z,-1.56
2022-12-17T07:41:36.545Z,-1.56
2022-12-17T07:42:36.547Z,-1.56
2022-12-17T07:43:36.874Z,-2
2022-12-17T07:44:36.553Z,-1.67
2022-12-17T07:45:36.659Z,-1.28
2022-12-17T07:46:36.558Z,-1.28
2022-12-17T07:47:36.564Z,-1.44
2022-12-17T07:48:36.552Z,-1.28
2022-12-17T07:49:36.571Z,-1.44
2022-12-17T07:50:36.558Z,-1.28
2022-12-17T07:51:36.547Z,-1.67
2022-12-17T07:52:36.561Z,-1.28
2022-12-17T07:53:36.923Z,-1.56
2022-12-17T07:54:36.561Z,-1.28
2022-12-17T07:55:36.563Z,-1.44
2022-12-17T07:56:36.564Z,-1.11
2022-12-17T07:57:36.565Z,-1.56
2022-12-17T07:58:36.564Z,-1.28
2022-12-17T07:59:36.611Z,-1.28
2022-12-17T08:00:36.565Z,-1.56
2022-12-17T08:01:36.714Z,-1.44
2022-12-17T08:02:36.833Z,-1.56
2022-12-17T08:03:37.061Z,-1.56
2022-12-17T08:04:36.578Z,-1.56
2022-12-17T08:05:36.571Z,-1.67
2022-12-17T08:06:36.580Z,-1.44
2022-12-17T08:07:36.582Z,-2.17
2022-12-17T08:08:36.572Z,-1.67
2022-12-17T08:09:36.572Z,-1.67
2022-12-17T08:10:36.606Z,-1.67
2022-12-17T08:11:36.621Z,-1.28
2022-12-17T08:12:36.612Z,-1.28
2022-12-17T08:13:36.871Z,-1
2022-12-17T08:14:36.577Z,-1
2022-12-17T08:15:36.562Z,-1.28
2022-12-17T08:16:36.629Z,-1.11
2022-12-17T08:17:36.602Z,-1.11
2022-12-17T08:18:36.570Z,-1.83
2022-12-17T08:19:36.577Z,-2
2022-12-17T08:20:36.588Z,-1.83
2022-12-17T08:21:36.576Z,-1.67
2022-12-17T08:22:36.610Z,-1.56
2022-12-17T08:23:36.870Z,-1.28
2022-12-17T08:24:36.574Z,-1.28
2022-12-17T08:25:36.605Z,-1.28
2022-12-17T08:26:36.574Z,-1.56
2022-12-17T08:27:36.581Z,-1.67
2022-12-17T08:28:51.855Z,-2
2022-12-17T08:29:36.577Z,-1.83
2022-12-17T08:30:36.600Z,-2
2022-12-17T08:31:36.578Z,-1.67
2022-12-17T08:32:36.627Z,-1.56
2022-12-17T08:33:36.892Z,-1.67
2022-12-17T08:34:36.589Z,-1.83
2022-12-17T08:35:36.581Z,-1.44
2022-12-17T08:36:36.599Z,-1.44
2022-12-17T08:37:36.594Z,-1.83
2022-12-17T08:38:36.663Z,-1.83
2022-12-17T08:39:36.598Z,-1.67
2022-12-17T08:40:36.587Z,-1.67
2022-12-17T08:41:36.583Z,-1.83
2022-12-17T08:42:36.600Z,-1.83
2022-12-17T08:43:36.891Z,-2
2022-12-17T08:44:36.594Z,-1.83
2022-12-17T08:45:36.630Z,-1.67
2022-12-17T08:46:36.627Z,-1.44
2022-12-17T08:47:36.595Z,-1.28
2022-12-17T08:48:36.606Z,-1
2022-12-17T08:49:36.631Z,-1.44
2022-12-17T08:50:36.596Z,-1.28
2022-12-17T08:51:36.608Z,-2
2022-12-17T08:52:36.609Z,-1.28
2022-12-17T08:53:37.078Z,-1.44
2022-12-17T08:54:36.597Z,-1.11
2022-12-17T08:55:36.612Z,-1.11
2022-12-17T08:56:36.610Z,-1.44
2022-12-17T08:57:36.604Z,-1.44
2022-12-17T08:58:36.602Z,-1.28
2022-12-17T08:59:36.607Z,-1.28
2022-12-17T09:00:36.624Z,-1.28
2022-12-17T09:01:36.737Z,-1.44
2022-12-17T09:02:36.689Z,-2
2022-12-17T09:03:37.041Z,-1.83
2022-12-17T09:04:36.608Z,-1.67
2022-12-17T09:05:36.628Z,-1.67
2022-12-17T09:06:39.202Z,-1.56
2022-12-17T09:07:36.617Z,-1.67
2022-12-17T09:08:36.613Z,-2
2022-12-17T09:09:36.614Z,-1.67
2022-12-17T09:10:36.614Z,-1.67
2022-12-17T09:11:36.615Z,-1.83
2022-12-17T09:12:36.627Z,-1.83
2022-12-17T09:13:36.955Z,-1.83
2022-12-17T09:14:36.610Z,-1.83
2022-12-17T09:15:36.635Z,-1.67
2022-12-17T09:16:36.639Z,-1.56
2022-12-17T09:17:36.621Z,-1.56
2022-12-17T09:18:36.616Z,-1.67
2022-12-17T09:19:36.616Z,-1.56
2022-12-17T09:20:36.625Z,-0.83
2022-12-17T09:21:36.646Z,-1.11
2022-12-17T09:22:36.626Z,-1.28
2022-12-17T09:23:36.892Z,-1
2022-12-17T09:24:36.635Z,-1.28
2022-12-17T09:25:36.671Z,-1.28
2022-12-17T09:26:36.624Z,-1.28
2022-12-17T09:27:36.688Z,-1.11
2022-12-17T09:28:36.630Z,-1.28
2022-12-17T09:29:36.674Z,-1
2022-12-17T09:30:36.649Z,-1
2022-12-17T09:31:37.600Z,-1.11
2022-12-17T09:32:36.623Z,-2
2022-12-17T09:33:36.950Z,-2.17
2022-12-17T09:34:36.670Z,-2.28
2022-12-17T09:35:36.624Z,-2
2022-12-17T09:36:36.626Z,-1.67
2022-12-17T09:37:36.654Z,-1.56
2022-12-17T09:38:36.635Z,-1.56
2022-12-17T09:39:36.638Z,-1.28
2022-12-17T09:40:36.631Z,-1.28
2022-12-17T09:41:36.632Z,-1.28
2022-12-17T09:42:36.625Z,-1.28
2022-12-17T09:43:36.847Z,-1.28
2022-12-17T09:44:36.625Z,-1.11
2022-12-17T09:45:36.646Z,-1.11
2022-12-17T09:46:36.701Z,-1.28
2022-12-17T09:47:36.639Z,-1.28
2022-12-17T09:48:36.637Z,-1.28
2022-12-17T09:49:36.642Z,-1.11
2022-12-17T09:50:36.632Z,-1.11
2022-12-17T09:51:36.643Z,-0.83
2022-12-17T09:52:36.656Z,-1
2022-12-17T09:53:37.082Z,-1.11
2022-12-17T09:54:36.641Z,-1.11
2022-12-17T09:55:36.647Z,-1.28
2022-12-17T09:56:36.633Z,-1
2022-12-17T09:57:36.632Z,-0.83
2022-12-17T09:58:36.658Z,-1
2022-12-17T09:59:36.639Z,-1.28
2022-12-17T10:00:36.649Z,-1.28
2022-12-17T10:01:36.712Z,-1.44
2022-12-17T10:02:36.817Z,-1.11
2022-12-17T10:03:37.018Z,-1.11
2022-12-17T10:04:36.641Z,-0.83
2022-12-17T10:05:36.629Z,-1
2022-12-17T10:06:36.672Z,-1
2022-12-17T10:07:36.649Z,-1
2022-12-17T10:08:36.700Z,-1
2022-12-17T10:09:36.672Z,-0.56
2022-12-17T10:10:36.636Z,-1.11
2022-12-17T10:11:36.640Z,-1.28
2022-12-17T10:12:36.639Z,-0.83
2022-12-17T10:13:37.009Z,-0.83
2022-12-17T10:14:36.651Z,-0.67
2022-12-17T10:15:36.697Z,-1
2022-12-17T10:16:36.644Z,-1.11
2022-12-17T10:17:36.645Z,-1
2022-12-17T10:18:36.642Z,-1.44
2022-12-17T10:19:36.652Z,-1
2022-12-17T10:20:36.641Z,-0.83
2022-12-17T10:21:36.682Z,-1.28
2022-12-17T10:22:39.098Z,-1
2022-12-17T10:23:37.009Z,-1.11
2022-12-17T10:24:36.654Z,-0.83
2022-12-17T10:25:36.664Z,-1.28
2022-12-17T10:26:36.654Z,-0.83
2022-12-17T10:27:36.657Z,-1
2022-12-17T10:28:36.656Z,-0.83
2022-12-17T10:29:36.657Z,-0.83
2022-12-17T10:30:36.675Z,-1.11
2022-12-17T10:31:36.730Z,-1
2022-12-17T10:32:36.708Z,-1.28
2022-12-17T10:33:36.948Z,-0.83
2022-12-17T10:34:36.668Z,-0.56
2022-12-17T10:35:36.672Z,-0.83
2022-12-17T10:36:36.668Z,-0.83
2022-12-17T10:37:36.662Z,-1.28
2022-12-17T10:38:36.669Z,-1
2022-12-17T10:39:36.672Z,-0.83
2022-12-17T10:40:36.732Z,-0.83
2022-12-17T10:41:36.699Z,-0.67
2022-12-17T10:42:36.676Z,-0.39
2022-12-17T10:43:37.001Z,-0.39
2022-12-17T10:44:36.678Z,-0.39
2022-12-17T10:45:36.676Z,-0.56
2022-12-17T10:46:36.840Z,-0.39
2022-12-17T10:47:36.683Z,-0.28
2022-12-17T10:48:36.679Z,-0.39
2022-12-17T10:49:36.679Z,-0.28
2022-12-17T10:50:36.684Z,-1
2022-12-17T10:51:36.724Z,-0.39
2022-12-17T10:52:36.693Z,-0.39
2022-12-17T10:53:37.003Z,-0.17
2022-12-17T10:54:36.694Z,-0.39
2022-12-17T10:55:36.686Z,-0.17
2022-12-17T10:56:36.687Z,-0.39
2022-12-17T10:57:36.733Z,-0.28
2022-12-17T10:58:36.697Z,-0.28
2022-12-17T10:59:36.745Z,-0.17
2022-12-17T11:00:36.716Z,-0.28
2022-12-17T11:01:36.815Z,-0.28
2022-12-17T11:02:36.885Z,-0.17
2022-12-17T11:03:36.981Z,-0.17
2022-12-17T11:04:36.707Z,0
2022-12-17T11:05:36.723Z,-0.17
2022-12-17T11:06:41.969Z,-0.17
2022-12-17T11:07:36.713Z,-1.11
2022-12-17T11:08:37.040Z,-1.67
2022-12-17T11:09:36.711Z,-1.67
2022-12-17T11:10:36.715Z,-1.56
2022-12-17T11:11:36.784Z,-1.28
2022-12-17T11:12:36.734Z,-0.83
2022-12-17T11:13:37.085Z,-0.56
2022-12-17T11:14:36.780Z,-0.39
2022-12-17T11:15:36.785Z,-0.17
2022-12-17T11:16:36.734Z,-0.28
2022-12-17T11:17:36.726Z,0
2022-12-17T11:18:36.733Z,-0.17
2022-12-17T11:19:36.730Z,-0.28
2022-12-17T11:20:36.734Z,-0.28
2022-12-17T11:21:36.736Z,-0.39
2022-12-17T11:22:36.738Z,-0.67
2022-12-17T11:23:37.007Z,-0.39
2022-12-17T11:24:36.737Z,-0.28
2022-12-17T11:25:36.799Z,-0.67
2022-12-17T11:26:36.753Z,-0.28
2022-12-17T11:27:36.745Z,-0.28
2022-12-17T11:28:36.747Z,-0.28
2022-12-17T11:29:36.768Z,-0.17
2022-12-17T11:30:36.746Z,0
2022-12-17T11:31:36.851Z,-0.39
2022-12-17T11:32:36.757Z,-0.83
2022-12-17T11:33:37.018Z,-1.28
2022-12-17T11:34:36.756Z,-1.28
2022-12-17T11:35:36.771Z,-1.11
2022-12-17T11:36:38.935Z,-1.28
2022-12-17T11:37:36.763Z,-1.28
2022-12-17T11:38:37.284Z,-0.83
2022-12-17T11:39:36.767Z,-0.67
2022-12-17T11:40:36.774Z,-0.17
2022-12-17T11:41:36.772Z,-0.17
2022-12-17T11:42:36.772Z,0
2022-12-17T11:43:36.773Z,-0.17
2022-12-17T11:44:36.777Z,-0.39
2022-12-17T11:45:36.804Z,-0.56
2022-12-17T11:46:36.805Z,-0.56
2022-12-17T11:47:36.783Z,-0.67
2022-12-17T11:48:37.082Z,-0.56
2022-12-17T11:49:36.783Z,-0.28
2022-12-17T11:50:36.773Z,-0.17
2022-12-17T11:51:36.783Z,0.17
2022-12-17T11:52:36.788Z,0.17
2022-12-17T11:53:36.797Z,0
2022-12-17T11:54:36.782Z,-0.39
2022-12-17T11:55:36.810Z,-0.67
2022-12-17T11:56:36.780Z,-0.39
2022-12-17T11:57:36.794Z,-0.39
2022-12-17T11:58:37.198Z,-0.17
2022-12-17T11:59:36.800Z,0
2022-12-17T12:00:36.792Z,0
2022-12-17T12:01:36.938Z,0
2022-12-17T12:02:36.829Z,-0.39
2022-12-17T12:03:36.923Z,-0.17
2022-12-17T12:04:36.797Z,-0.39
2022-12-17T12:05:36.806Z,-0.17
2022-12-17T12:06:36.818Z,0
2022-12-17T12:07:36.811Z,0.28
2022-12-17T12:08:37.142Z,0.72
2022-12-17T12:09:36.807Z,1.17
2022-12-17T12:10:36.806Z,0.72
2022-12-17T12:11:36.809Z,0.44
2022-12-17T12:12:36.809Z,0.44
2022-12-17T12:13:36.819Z,0.28
2022-12-17T12:14:36.809Z,0.72
2022-12-17T12:15:36.815Z,0.28
2022-12-17T12:16:40.675Z,0.72
2022-12-17T12:17:36.850Z,0.89
2022-12-17T12:18:37.072Z,1.61
2022-12-17T12:19:36.830Z,1.06
2022-12-17T12:20:36.815Z,0.89
2022-12-17T12:21:36.828Z,0.89
2022-12-17T12:22:36.831Z,0.89
2022-12-17T12:23:36.826Z,0.89
2022-12-17T12:24:36.826Z,0.89
2022-12-17T12:25:36.828Z,0.61
2022-12-17T12:26:36.820Z,0.72
2022-12-17T12:27:42.321Z,1.06
2022-12-17T12:28:37.144Z,0.44
2022-12-17T12:29:36.827Z,0.89
2022-12-17T12:30:36.837Z,1.33
2022-12-17T12:31:36.943Z,1.72
2022-12-17T12:32:36.838Z,2
2022-12-17T12:33:36.863Z,1.61
2022-12-17T12:34:36.844Z,1.61
2022-12-17T12:35:36.840Z,0.72
2022-12-17T12:36:36.840Z,0.17
2022-12-17T12:37:36.840Z,0.89
2022-12-17T12:38:39.434Z,0.44
2022-12-17T12:39:36.859Z,0.89
2022-12-17T12:40:36.867Z,1.5
2022-12-17T12:41:36.861Z,1.72
2022-12-17T12:42:36.857Z,1.33
2022-12-17T12:43:36.857Z,1.06
2022-12-17T12:44:36.857Z,0.61
2022-12-17T12:45:36.899Z,0.72
2022-12-17T12:46:36.867Z,0.28
2022-12-17T12:47:36.853Z,0.89
2022-12-17T12:48:37.132Z,1.5
2022-12-17T12:49:36.899Z,0.89
2022-12-17T12:50:36.875Z,1.33
2022-12-17T12:51:36.871Z,1.33
2022-12-17T12:52:36.889Z,1.61
2022-12-17T12:53:36.872Z,1.33
2022-12-17T12:54:36.878Z,1.06
2022-12-17T12:55:36.882Z,1.33
2022-12-17T12:56:36.884Z,1.33
2022-12-17T12:57:36.881Z,1.17
2022-12-17T12:58:37.200Z,1.17
2022-12-17T12:59:36.892Z,1.72
2022-12-17T13:00:36.929Z,1.17
2022-12-17T13:01:37.017Z,0.89